Terminal Aerodrome Forecast
Issued by NWS

Home | Current Version | Previous Version | Text Only | Print | Product List | Glossary On
Versions: 1 2 3 4 5 6 7 8 9 10 11 12 13 14 15
000
FTUS42 KILM 271100
TAFCRE
TAF
KCRE 271120Z 2712/2812 31010G16KT P6SM BKN035
     FM271300 31011G19KT P6SM SCT040
     FM272000 30008KT P6SM FEW050
     FM280000 VRB03KT P6SM SKC=

USA.gov is the U.S. government's official web portal to all federal, state and local government web resources and services.